createdAt,value
2023-03-18T00:01:14.807Z,92.30
2023-03-18T00:03:43.038Z,92.10
2023-03-18T00:06:15.426Z,92.10
2023-03-18T00:08:46.280Z,92.40
2023-03-18T00:11:19.236Z,92.20
2023-03-18T00:13:49.547Z,92.00
2023-03-18T00:16:18.277Z,92.10
2023-03-18T00:18:46.994Z,92.10
2023-03-18T00:21:16.859Z,92.20
2023-03-18T00:23:45.209Z,92.30
2023-03-18T00:26:13.589Z,92.20
2023-03-18T00:28:43.133Z,92.10
2023-03-18T00:31:15.652Z,92.00
2023-03-18T00:33:45.792Z,92.10
2023-03-18T00:36:16.724Z,92.20
2023-03-18T00:38:51.141Z,92.30
2023-03-18T00:41:19.431Z,92.20
2023-03-18T00:43:54.052Z,92.10
2023-03-18T00:46:26.102Z,92.10
2023-03-18T00:48:56.233Z,92.10
2023-03-18T00:51:26.601Z,92.30
2023-03-18T00:53:56.919Z,92.30
2023-03-18T00:56:28.270Z,92.10
2023-03-18T00:58:57.330Z,92.10
2023-03-18T01:01:28.216Z,92.00
2023-03-18T01:04:00.714Z,91.80
2023-03-18T01:06:34.028Z,92.10
2023-03-18T01:09:02.848Z,92.10
2023-03-18T01:11:31.116Z,92.20
2023-03-18T01:14:00.684Z,92.40
2023-03-18T01:16:30.881Z,92.20
2023-03-18T01:18:59.921Z,92.30
2023-03-18T01:21:28.269Z,92.20
2023-03-18T01:24:00.951Z,92.30
2023-03-18T01:26:30.514Z,92.30
2023-03-18T01:29:01.053Z,92.30
2023-03-18T01:31:34.660Z,92.40
2023-03-18T01:34:07.776Z,92.20
2023-03-18T01:36:46.383Z,92.40
2023-03-18T01:39:15.327Z,92.40
2023-03-18T01:41:43.686Z,92.40
2023-03-18T01:44:15.741Z,92.50
2023-03-18T01:46:47.422Z,92.60
2023-03-18T01:49:19.238Z,92.40
2023-03-18T01:51:53.986Z,92.50
2023-03-18T01:54:24.015Z,92.50
2023-03-18T01:56:53.940Z,92.40
2023-03-18T01:59:26.456Z,92.50
2023-03-18T02:02:01.354Z,92.50
2023-03-18T02:04:36.491Z,92.50
2023-03-18T02:07:05.462Z,92.50
2023-03-18T02:09:33.689Z,92.20
2023-03-18T02:12:04.406Z,92.40
2023-03-18T02:14:32.749Z,92.40
2023-03-18T02:17:06.043Z,92.50
2023-03-18T02:20:01.036Z,92.50
2023-03-18T02:22:33.289Z,92.60
2023-03-18T02:25:29.377Z,93.10
2023-03-18T02:28:03.550Z,92.70
2023-03-18T02:30:38.210Z,92.60
2023-03-18T02:33:08.946Z,92.60
2023-03-18T02:35:38.110Z,92.70
2023-03-18T02:38:06.736Z,92.80
2023-03-18T02:40:37.450Z,92.90
2023-03-18T02:43:24.274Z,92.80
2023-03-18T02:46:08.061Z,92.90
2023-03-18T02:48:39.324Z,92.90
2023-03-18T02:51:09.027Z,92.90
2023-03-18T02:53:37.702Z,93.00
2023-03-18T02:56:08.263Z,93.10
2023-03-18T02:58:38.968Z,93.20
2023-03-18T03:01:09.494Z,93.20
2023-03-18T03:03:37.958Z,93.30
2023-03-18T03:06:08.904Z,93.10
2023-03-18T03:08:38.321Z,93.10
2023-03-18T03:11:07.416Z,93.00
2023-03-18T03:13:39.863Z,93.00
2023-03-18T03:16:10.753Z,93.00
2023-03-18T03:18:39.137Z,93.10
2023-03-18T03:21:08.835Z,93.00
2023-03-18T03:23:37.427Z,92.90
2023-03-18T03:26:06.810Z,92.90
2023-03-18T03:28:38.979Z,92.80
2023-03-18T03:31:08.923Z,93.00
2023-03-18T03:33:41.278Z,93.10
2023-03-18T03:36:11.488Z,92.90
2023-03-18T03:38:41.602Z,93.00
2023-03-18T03:41:11.694Z,92.90
2023-03-18T03:43:42.728Z,92.80
2023-03-18T03:46:11.622Z,92.80
2023-03-18T03:48:42.556Z,92.80
2023-03-18T03:51:14.816Z,92.70
2023-03-18T03:53:43.863Z,92.70
2023-03-18T03:56:12.440Z,92.80
2023-03-18T03:58:42.162Z,92.70
2023-03-18T04:01:10.449Z,92.50
2023-03-18T04:03:41.506Z,92.40
2023-03-18T04:06:10.876Z,92.50
2023-03-18T04:08:46.282Z,92.40
2023-03-18T04:11:14.533Z,92.40
2023-03-18T04:13:44.862Z,92.40
2023-03-18T04:16:13.081Z,92.50
2023-03-18T04:18:43.975Z,92.30
2023-03-18T04:21:12.306Z,92.10
2023-03-18T04:23:45.458Z,92.00
2023-03-18T04:26:13.888Z,92.10
2023-03-18T04:28:46.100Z,92.10
2023-03-18T04:31:18.049Z,92.10
2023-03-18T04:33:46.457Z,92.10
2023-03-18T04:36:14.792Z,92.20
2023-03-18T04:38:43.729Z,92.30
2023-03-18T04:41:12.216Z,92.20
2023-03-18T04:43:40.666Z,92.10
2023-03-18T04:46:12.060Z,92.10
2023-03-18T04:48:41.047Z,92.10
2023-03-18T04:51:10.659Z,92.20
2023-03-18T04:53:39.874Z,92.10
2023-03-18T04:56:09.949Z,92.20
2023-03-18T04:58:49.529Z,92.20
2023-03-18T05:01:23.472Z,92.30
2023-03-18T05:03:52.184Z,92.30
2023-03-18T05:06:25.332Z,92.40
2023-03-18T05:09:00.177Z,92.20
2023-03-18T05:11:34.590Z,92.40
2023-03-18T05:14:11.931Z,92.40
2023-03-18T05:16:46.565Z,92.50
2023-03-18T05:19:18.267Z,92.60
2023-03-18T05:21:54.149Z,92.50
2023-03-18T05:24:22.899Z,92.40
2023-03-18T05:26:51.816Z,92.60
2023-03-18T05:29:24.789Z,92.70
2023-03-18T05:32:07.085Z,92.80
2023-03-18T05:34:37.629Z,92.70
2023-03-18T05:37:07.272Z,92.80
2023-03-18T05:39:37.253Z,92.70
2023-03-18T05:42:10.682Z,93.00
2023-03-18T05:44:40.410Z,92.80
2023-03-18T05:47:12.633Z,92.80
2023-03-18T05:49:59.958Z,92.70
2023-03-18T05:52:29.259Z,92.80
2023-03-18T05:55:02.454Z,92.80
2023-03-18T05:57:35.060Z,92.90
2023-03-18T06:00:08.252Z,92.70
2023-03-18T06:02:49.710Z,92.50
2023-03-18T06:05:19.284Z,92.70
2023-03-18T06:07:48.442Z,92.40
2023-03-18T06:10:18.132Z,92.30
2023-03-18T06:12:48.236Z,92.20
2023-03-18T06:15:18.901Z,92.10
2023-03-18T06:17:50.028Z,92.10
2023-03-18T06:20:19.822Z,92.20
2023-03-18T06:22:49.978Z,91.80
2023-03-18T06:25:20.203Z,91.50
2023-03-18T06:27:49.517Z,91.60
2023-03-18T06:30:20.704Z,91.80
2023-03-18T06:32:50.843Z,91.60
2023-03-18T06:35:19.457Z,91.30
2023-03-18T06:37:48.607Z,91.00
2023-03-18T06:40:17.497Z,90.90
2023-03-18T06:42:46.643Z,90.90
2023-03-18T06:45:25.844Z,90.70
2023-03-18T06:48:03.613Z,90.40
2023-03-18T06:50:34.575Z,90.30
2023-03-18T06:53:03.890Z,90.20
2023-03-18T06:55:35.740Z,89.80
2023-03-18T06:58:05.596Z,89.60
2023-03-18T07:00:47.682Z,89.80
2023-03-18T07:03:28.275Z,88.40
2023-03-18T07:05:57.340Z,87.50
2023-03-18T07:08:26.333Z,88.00
2023-03-18T07:10:57.502Z,87.70
2023-03-18T07:13:26.946Z,86.90
2023-03-18T07:15:56.586Z,86.50
2023-03-18T07:18:31.849Z,86.10
2023-03-18T07:21:01.177Z,85.40
2023-03-18T07:23:35.217Z,85.60
2023-03-18T07:26:03.558Z,85.30
2023-03-18T07:28:31.966Z,83.70
2023-03-18T07:31:01.201Z,84.40
2023-03-18T07:33:34.054Z,82.90
2023-03-18T07:36:02.347Z,82.60
2023-03-18T07:38:30.967Z,82.00
2023-03-18T07:40:59.207Z,82.30
2023-03-18T07:43:27.582Z,82.20
2023-03-18T07:45:55.820Z,81.70
2023-03-18T07:48:24.003Z,80.70
2023-03-18T07:50:53.548Z,80.90
2023-03-18T07:53:22.121Z,81.00
2023-03-18T07:55:50.900Z,80.40
2023-03-18T07:58:19.159Z,79.50
2023-03-18T08:00:47.596Z,79.80
2023-03-18T08:03:15.954Z,79.50
2023-03-18T08:05:44.685Z,79.30
2023-03-18T08:08:14.340Z,80.00
2023-03-18T08:10:42.540Z,78.30
2023-03-18T08:13:10.795Z,78.10
2023-03-18T08:15:38.969Z,78.20
2023-03-18T08:18:09.373Z,77.00
2023-03-18T08:20:38.292Z,77.10
2023-03-18T08:23:06.805Z,76.70
2023-03-18T08:25:36.396Z,76.40
2023-03-18T08:28:07.651Z,75.70
2023-03-18T08:30:36.260Z,75.20
2023-03-18T08:33:04.775Z,75.40
2023-03-18T08:35:34.270Z,76.20
2023-03-18T08:38:04.296Z,76.60
2023-03-18T08:40:34.911Z,76.20
2023-03-18T08:43:04.529Z,76.40
2023-03-18T08:45:33.089Z,74.20
2023-03-18T08:48:01.458Z,70.10
2023-03-18T08:50:29.888Z,68.00
2023-03-18T08:52:58.884Z,63.50
2023-03-18T08:55:32.069Z,61.30
2023-03-18T08:58:00.642Z,56.60
2023-03-18T09:00:30.391Z,54.60
2023-03-18T09:02:58.607Z,53.30
2023-03-18T09:05:26.872Z,52.50
2023-03-18T09:07:55.385Z,49.90
2023-03-18T09:10:23.753Z,49.50
2023-03-18T09:12:52.196Z,49.20
2023-03-18T09:15:21.314Z,47.60
2023-03-18T09:18:07.853Z,47.30
2023-03-18T09:20:39.231Z,46.70
2023-03-18T09:23:07.711Z,45.00
2023-03-18T09:25:36.045Z,44.60
2023-03-18T09:28:04.537Z,45.00
2023-03-18T09:30:33.888Z,45.00
2023-03-18T09:33:03.572Z,44.20
2023-03-18T09:35:32.515Z,44.40
2023-03-18T09:38:01.422Z,43.50
2023-03-18T09:40:38.284Z,43.20
2023-03-18T09:43:19.963Z,43.70
2023-03-18T09:45:59.427Z,43.40
2023-03-18T09:48:46.104Z,42.50
2023-03-18T09:51:24.925Z,42.20
2023-03-18T09:53:57.919Z,42.70
2023-03-18T09:56:30.273Z,43.20
2023-03-18T09:59:04.713Z,43.10
2023-03-18T10:04:25.913Z,43.70
2023-03-18T10:07:00.149Z,44.30
2023-03-18T10:09:31.815Z,44.30
2023-03-18T10:12:07.714Z,43.80
2023-03-18T10:14:43.364Z,43.50
2023-03-18T10:17:19.669Z,43.20
2023-03-18T10:19:58.729Z,43.70
2023-03-18T10:22:48.209Z,43.70
2023-03-18T10:25:25.824Z,43.80
2023-03-18T10:28:11.153Z,43.60
2023-03-18T10:30:54.875Z,44.30
2023-03-18T10:33:31.743Z,44.90
2023-03-18T10:36:08.086Z,44.30
2023-03-18T10:38:39.712Z,44.10
2023-03-18T10:44:05.680Z,45.10
2023-03-18T10:46:37.765Z,45.40
2023-03-18T10:49:10.513Z,45.30
2023-03-18T10:51:45.915Z,45.70
2023-03-18T10:54:22.533Z,45.70
2023-03-18T10:56:53.829Z,45.20
2023-03-18T10:59:25.883Z,45.00
2023-03-18T11:01:58.340Z,45.20
2023-03-18T11:04:30.649Z,45.50
2023-03-18T11:07:03.641Z,45.30
2023-03-18T11:09:33.966Z,45.30
2023-03-18T11:12:05.702Z,44.90
2023-03-18T11:14:34.787Z,45.60
2023-03-18T11:17:06.022Z,45.30
2023-03-18T11:19:39.860Z,45.60
2023-03-18T11:22:20.360Z,46.30
2023-03-18T11:25:07.198Z,46.20
2023-03-18T11:27:39.725Z,47.10
2023-03-18T11:30:33.185Z,46.90
2023-03-18T11:33:07.285Z,47.50
2023-03-18T11:35:41.941Z,47.10
2023-03-18T11:38:18.733Z,46.90
2023-03-18T11:40:47.386Z,47.50
2023-03-18T11:43:21.259Z,47.60
2023-03-18T11:45:54.396Z,46.70
2023-03-18T11:48:31.472Z,46.90
2023-03-18T11:51:38.497Z,46.80
2023-03-18T11:54:17.698Z,47.30
2023-03-18T11:56:49.798Z,47.00
2023-03-18T11:59:31.499Z,47.60
2023-03-18T12:02:14.204Z,47.60
2023-03-18T12:05:05.617Z,48.10
2023-03-18T12:07:53.101Z,47.90
2023-03-18T12:10:28.473Z,48.40
2023-03-18T12:13:22.973Z,48.80
2023-03-18T12:16:00.388Z,49.10
2023-03-18T12:18:51.668Z,48.80
2023-03-18T12:21:56.692Z,49.40
2023-03-18T12:24:44.058Z,49.20
2023-03-18T12:27:19.079Z,49.70
2023-03-18T12:30:05.674Z,49.90
2023-03-18T12:32:40.082Z,50.10
2023-03-18T12:35:31.875Z,50.20
2023-03-18T12:38:31.398Z,51.10
2023-03-18T12:41:08.014Z,50.60
2023-03-18T12:43:48.000Z,50.90
2023-03-18T12:46:28.875Z,50.70
2023-03-18T12:49:03.799Z,50.90
2023-03-18T12:51:42.488Z,51.70
2023-03-18T12:54:20.193Z,51.40
2023-03-18T12:56:56.789Z,51.90
2023-03-18T12:59:34.031Z,52.10
2023-03-18T13:02:22.928Z,51.90
2023-03-18T13:04:55.944Z,52.40
2023-03-18T13:07:32.844Z,52.50
2023-03-18T13:10:07.163Z,52.70
2023-03-18T13:12:39.731Z,53.40
2023-03-18T13:15:23.117Z,52.80
2023-03-18T13:17:56.363Z,53.00
2023-03-18T13:20:28.059Z,53.50
2023-03-18T13:23:20.782Z,53.20
2023-03-18T13:26:00.107Z,53.70
2023-03-18T13:28:51.330Z,54.30
2023-03-18T13:31:32.321Z,54.00
2023-03-18T13:34:27.389Z,53.20
2023-03-18T13:37:18.697Z,53.40
2023-03-18T13:40:14.893Z,53.80
2023-03-18T13:42:44.578Z,53.90
2023-03-18T13:45:28.038Z,54.50
2023-03-18T13:48:02.851Z,54.30
2023-03-18T13:50:37.463Z,53.90
2023-03-18T13:53:23.117Z,55.10
2023-03-18T13:56:01.023Z,54.80
2023-03-18T13:58:31.002Z,54.90
2023-03-18T14:01:29.777Z,55.40
2023-03-18T14:04:02.351Z,55.30
2023-03-18T14:06:55.703Z,55.40
2023-03-18T14:09:34.121Z,55.40
2023-03-18T14:12:20.973Z,55.70
2023-03-18T14:15:22.186Z,55.60
2023-03-18T14:17:56.950Z,56.00
2023-03-18T14:20:41.990Z,56.60
2023-03-18T14:23:40.113Z,56.70
2023-03-18T14:26:24.504Z,56.90
2023-03-18T14:28:57.515Z,56.60
2023-03-18T14:31:34.558Z,56.90
2023-03-18T14:34:25.645Z,57.00
2023-03-18T14:37:20.346Z,57.30
2023-03-18T14:39:53.016Z,57.20
2023-03-18T14:42:38.150Z,57.30
2023-03-18T14:45:16.470Z,57.50
2023-03-18T14:47:47.825Z,57.70
2023-03-18T14:50:39.392Z,57.70
2023-03-18T14:53:20.344Z,57.50
2023-03-18T14:55:49.802Z,58.30
2023-03-18T14:58:22.355Z,57.50
2023-03-18T15:00:53.425Z,57.80
2023-03-18T15:03:24.879Z,57.80
2023-03-18T15:05:58.051Z,57.60
2023-03-18T15:08:44.628Z,57.80
2023-03-18T15:11:16.580Z,57.90
2023-03-18T15:13:46.488Z,58.00
2023-03-18T15:16:19.319Z,58.20
2023-03-18T15:18:52.758Z,58.60
2023-03-18T15:21:24.394Z,58.70
2023-03-18T15:23:56.467Z,58.40
2023-03-18T15:26:27.096Z,58.70
2023-03-18T15:28:57.524Z,58.90
2023-03-18T15:31:27.480Z,59.10
2023-03-18T15:34:07.634Z,59.50
2023-03-18T15:36:43.112Z,59.70
2023-03-18T15:39:24.704Z,59.20
2023-03-18T15:41:54.427Z,59.40
2023-03-18T15:44:26.621Z,59.50
2023-03-18T15:46:56.187Z,59.50
2023-03-18T15:49:28.608Z,59.80
2023-03-18T15:52:01.455Z,59.60
2023-03-18T15:54:39.804Z,59.50
2023-03-18T15:57:13.911Z,59.90
2023-03-18T15:59:42.570Z,60.30
2023-03-18T16:02:18.669Z,60.50
2023-03-18T16:04:48.568Z,60.50
2023-03-18T16:07:20.229Z,60.50
2023-03-18T16:09:51.440Z,60.70
2023-03-18T16:12:23.350Z,60.80
2023-03-18T16:14:52.998Z,60.80
2023-03-18T16:17:22.306Z,61.00
2023-03-18T16:19:54.557Z,61.40
2023-03-18T16:22:22.987Z,61.50
2023-03-18T16:24:53.109Z,61.60
2023-03-18T16:27:30.440Z,61.80
2023-03-18T16:29:58.770Z,61.80
2023-03-18T16:32:29.631Z,61.90
2023-03-18T16:35:00.693Z,61.80
2023-03-18T16:37:29.353Z,62.00
2023-03-18T16:39:58.902Z,62.30
2023-03-18T16:42:27.206Z,62.20
2023-03-18T16:44:55.954Z,62.30
2023-03-18T16:47:27.744Z,62.30
2023-03-18T16:49:56.513Z,62.40
2023-03-18T16:52:25.387Z,62.50
2023-03-18T16:54:53.611Z,62.60
2023-03-18T16:57:24.068Z,62.90
2023-03-18T16:59:55.847Z,63.20
2023-03-18T17:02:32.270Z,63.20
2023-03-18T17:05:01.175Z,63.20
2023-03-18T17:07:29.689Z,63.50
2023-03-18T17:10:00.268Z,63.50
2023-03-18T17:12:30.783Z,63.50
2023-03-18T17:15:00.013Z,63.70
2023-03-18T17:17:33.073Z,63.60
2023-03-18T17:20:01.334Z,63.90
2023-03-18T17:22:31.123Z,63.70
2023-03-18T17:25:00.182Z,63.60
2023-03-18T17:27:36.858Z,63.60
2023-03-18T17:30:16.256Z,63.80
2023-03-18T17:32:46.171Z,63.90
2023-03-18T17:35:17.493Z,64.10
2023-03-18T17:37:52.637Z,64.10
2023-03-18T17:40:22.915Z,64.20
2023-03-18T17:42:53.710Z,64.00
2023-03-18T17:45:28.085Z,63.90
2023-03-18T17:48:13.965Z,64.00
2023-03-18T17:50:42.510Z,64.10
2023-03-18T17:53:21.457Z,64.30
2023-03-18T17:55:49.808Z,64.50
2023-03-18T17:58:20.638Z,64.60
2023-03-18T18:00:49.610Z,64.70
2023-03-18T18:03:22.637Z,64.80
2023-03-18T18:05:53.775Z,65.10
2023-03-18T18:08:24.495Z,65.30
2023-03-18T18:10:54.277Z,65.40
2023-03-18T18:13:24.501Z,65.60
2023-03-18T18:15:55.374Z,65.70
2023-03-18T18:18:25.655Z,65.90
2023-03-18T18:21:02.180Z,65.90
2023-03-18T18:23:33.464Z,66.00
2023-03-18T18:26:04.612Z,66.10
2023-03-18T18:28:35.905Z,66.30
2023-03-18T18:31:06.189Z,66.50
2023-03-18T18:33:35.412Z,66.70
2023-03-18T18:36:04.189Z,66.80
2023-03-18T18:38:32.385Z,67.00
2023-03-18T18:41:03.176Z,67.20
2023-03-18T18:43:31.565Z,67.10
2023-03-18T18:46:01.558Z,67.10
2023-03-18T18:48:32.148Z,67.00
2023-03-18T18:51:01.268Z,67.00
2023-03-18T18:53:32.123Z,67.20
2023-03-18T18:56:03.797Z,67.40
2023-03-18T18:58:33.691Z,67.50
2023-03-18T19:01:03.345Z,67.70
2023-03-18T19:03:32.986Z,67.80
2023-03-18T19:06:04.834Z,68.10
2023-03-18T19:08:36.156Z,68.00
2023-03-18T19:11:08.850Z,67.90
2023-03-18T19:13:38.862Z,68.00
2023-03-18T19:16:21.039Z,68.00
2023-03-18T19:18:49.517Z,68.10
2023-03-18T19:21:17.874Z,68.00
2023-03-18T19:23:46.900Z,68.20
2023-03-18T19:26:16.521Z,68.20
2023-03-18T19:28:59.450Z,68.30
2023-03-18T19:31:35.036Z,68.50
2023-03-18T19:34:07.120Z,68.50
2023-03-18T19:36:41.428Z,68.70
2023-03-18T19:39:16.103Z,68.80
2023-03-18T19:41:45.327Z,68.80
2023-03-18T19:44:17.728Z,69.10
2023-03-18T19:46:52.520Z,69.00
2023-03-18T19:49:22.287Z,69.10
2023-03-18T19:51:51.095Z,69.50
2023-03-18T19:54:28.246Z,69.40
2023-03-18T19:57:00.321Z,69.60
2023-03-18T19:59:37.410Z,69.70
2023-03-18T20:02:19.927Z,69.60
2023-03-18T20:04:49.477Z,69.80
2023-03-18T20:07:18.995Z,69.90
2023-03-18T20:09:48.003Z,70.00
2023-03-18T20:12:26.040Z,70.10
2023-03-18T20:14:54.322Z,70.30
2023-03-18T20:17:32.791Z,70.30
2023-03-18T20:20:01.254Z,70.50
2023-03-18T20:22:34.026Z,70.50
2023-03-18T20:25:03.125Z,70.60
2023-03-18T20:27:31.742Z,70.80
2023-03-18T20:30:00.976Z,70.70
2023-03-18T20:32:30.584Z,70.80
2023-03-18T20:34:58.818Z,70.90
2023-03-18T20:37:33.648Z,71.10
2023-03-18T20:40:08.602Z,71.20
2023-03-18T20:42:37.069Z,71.40
2023-03-18T20:45:07.657Z,71.50
2023-03-18T20:47:40.177Z,71.60
2023-03-18T20:50:09.231Z,71.70
2023-03-18T20:52:37.456Z,71.90
2023-03-18T20:55:21.085Z,72.00
2023-03-18T20:57:49.661Z,72.20
2023-03-18T21:00:19.910Z,72.30
2023-03-18T21:02:50.748Z,72.50
2023-03-18T21:05:19.693Z,72.60
2023-03-18T21:07:48.619Z,72.70
2023-03-18T21:10:18.810Z,72.70
2023-03-18T21:12:47.596Z,72.80
2023-03-18T21:15:18.111Z,72.90
2023-03-18T21:17:46.597Z,73.00
2023-03-18T21:20:22.658Z,73.00
2023-03-18T21:22:52.256Z,73.00
2023-03-18T21:25:28.358Z,73.00
2023-03-18T21:27:56.733Z,73.00
2023-03-18T21:30:28.398Z,73.00
2023-03-18T21:32:56.722Z,73.10
2023-03-18T21:35:28.951Z,73.10
2023-03-18T21:37:57.235Z,73.10
2023-03-18T21:40:26.354Z,73.30
2023-03-18T21:42:54.612Z,73.20
2023-03-18T21:45:24.735Z,73.30
2023-03-18T21:47:53.826Z,73.40
2023-03-18T21:50:24.250Z,73.40
2023-03-18T21:52:56.176Z,73.60
2023-03-18T21:55:24.404Z,73.40
2023-03-18T21:57:52.602Z,74.30
2023-03-18T22:00:23.290Z,73.50
2023-03-18T22:02:54.506Z,73.90
2023-03-18T22:05:24.710Z,73.90
2023-03-18T22:07:54.394Z,74.10
2023-03-18T22:10:25.154Z,74.00
2023-03-18T22:12:53.454Z,74.20
2023-03-18T22:15:40.506Z,74.10
2023-03-18T22:18:09.126Z,74.00
2023-03-18T22:20:38.352Z,74.40
2023-03-18T22:23:20.170Z,74.40
2023-03-18T22:25:50.933Z,74.70
2023-03-18T22:28:22.981Z,74.70
2023-03-18T22:30:55.266Z,74.80
2023-03-18T22:33:27.441Z,74.60
2023-03-18T22:35:58.344Z,74.80
2023-03-18T22:38:28.236Z,74.80
2023-03-18T22:40:58.226Z,74.90
2023-03-18T22:47:39.315Z,74.80
2023-03-18T22:50:10.974Z,74.90
2023-03-18T22:52:39.556Z,74.80
2023-03-18T22:55:18.872Z,74.80
2023-03-18T22:57:47.104Z,74.70
2023-03-18T23:00:24.069Z,74.60
2023-03-18T23:02:52.625Z,74.60
2023-03-18T23:05:23.637Z,74.60
2023-03-18T23:07:52.057Z,74.70
2023-03-18T23:10:27.931Z,74.80
2023-03-18T23:12:58.451Z,74.90
2023-03-18T23:15:26.683Z,75.10
2023-03-18T23:17:54.871Z,75.10
2023-03-18T23:20:23.084Z,75.20
2023-03-18T23:22:51.417Z,75.20
2023-03-18T23:25:19.902Z,75.30
2023-03-18T23:27:49.526Z,75.20
2023-03-18T23:30:18.084Z,75.30
2023-03-18T23:32:46.961Z,75.40
2023-03-18T23:35:15.236Z,75.50
2023-03-18T23:37:43.411Z,75.40
2023-03-18T23:40:12.479Z,75.70
2023-03-18T23:42:40.659Z,75.70
2023-03-18T23:45:11.885Z,75.70
2023-03-18T23:47:40.562Z,76.00
2023-03-18T23:50:10.800Z,76.20
2023-03-18T23:52:39.941Z,76.20
2023-03-18T23:55:22.394Z,76.20
2023-03-18T23:57:56.820Z,76.40
